Time;durP1;ratioP1;P1;durP2;ratioP2;P2;SDS_P1;SDS_P2;PMS_P1;PMS_P2;Temp;Humidity;BMP_temperature;BMP_pressure;BME280_temperature;BME280_humidity;BME280_pressure;Samples;Min_cycle;Max_cycle;Signal;HPM_P1;HPM_P2
2024/01/05 01:38:29;;;;;;;25.38;23.80;;;;;;;;;;5987333;23;20027;31
2024/01/05 03:12:10;;;;;;;6.57;4.90;;;;;;;;;;5175217;23;20128;-95
2024/01/05 03:14:36;;;;;;;3.90;3.50;;;;;;;;;;4937810;29;20032;-94
2024/01/05 03:17:03;;;;;;;5.68;3.22;;;;;;;;;;4927352;29;20489;-95
2024/01/05 03:19:29;;;;;;;6.50;3.67;;;;;;;;;;4900872;29;20517;-93
2024/01/05 03:21:55;;;;;;;6.18;4.13;;;;;;;;;;4919022;29;20036;-94
2024/01/05 03:24:22;;;;;;;3.15;2.90;;;;;;;;;;4919849;29;20076;-94
2024/01/05 03:26:49;;;;;;;6.85;3.70;;;;;;;;;;4920091;29;20034;-96
2024/01/05 03:29:15;;;;;;;10.70;5.63;;;;;;;;;;4920173;29;20032;-95
2024/01/05 03:31:44;;;;;;;8.40;4.15;;;;;;;;;;4919992;29;20028;-94
2024/01/05 03:34:11;;;;;;;7.90;4.55;;;;;;;;;;4920343;29;20029;-93
2024/01/05 03:36:37;;;;;;;17.17;7.38;;;;;;;;;;4920024;29;20039;-93
2024/01/05 03:39:04;;;;;;;11.35;5.82;;;;;;;;;;4919759;29;20028;-94
2024/01/05 03:41:30;;;;;;;5.50;3.55;;;;;;;;;;4920162;29;20038;-95
2024/01/05 03:43:56;;;;;;;8.25;4.25;;;;;;;;;;4920154;29;20046;-94
2024/01/05 03:46:22;;;;;;;18.75;6.60;;;;;;;;;;4919878;29;20030;-94
2024/01/05 03:48:48;;;;;;;10.50;4.97;;;;;;;;;;4919902;29;20034;-95
2024/01/05 03:51:15;;;;;;;7.32;3.67;;;;;;;;;;4920716;29;20083;-95
2024/01/05 03:53:41;;;;;;;4.93;3.30;;;;;;;;;;4921589;29;20020;-95
2024/01/05 03:56:08;;;;;;;6.15;3.30;;;;;;;;;;4919780;29;20040;-94
2024/01/05 03:58:34;;;;;;;9.45;4.13;;;;;;;;;;4920713;29;20443;-94
2024/01/05 04:01:04;;;;;;;5.80;4.70;;;;;;;;;;4920006;29;20032;-94
2024/01/05 04:03:30;;;;;;;5.18;4.00;;;;;;;;;;4920278;29;20067;-95
2024/01/05 04:05:56;;;;;;;7.15;4.05;;;;;;;;;;4920203;29;20111;-95
2024/01/05 04:08:23;;;;;;;4.90;3.20;;;;;;;;;;4920175;29;20039;-95
2024/01/05 04:10:49;;;;;;;10.82;6.22;;;;;;;;;;4931404;28;20080;-96
2024/01/05 04:13:15;;;;;;;14.57;10.23;;;;;;;;;;4943701;28;20031;-93
2024/01/05 04:15:41;;;;;;;11.65;7.55;;;;;;;;;;4928988;29;20032;-95
2024/01/05 04:18:09;;;;;;;12.13;6.35;;;;;;;;;;4922527;29;20036;-95
2024/01/05 04:20:35;;;;;;;11.32;7.22;;;;;;;;;;4921686;29;20036;-94
2024/01/05 04:23:01;;;;;;;16.50;7.05;;;;;;;;;;4920007;29;20046;-95
2024/01/05 04:25:28;;;;;;;15.05;8.20;;;;;;;;;;4919319;29;20103;-95
2024/01/05 04:27:54;;;;;;;11.20;6.50;;;;;;;;;;4919050;29;20058;-95
2024/01/05 04:30:21;;;;;;;12.43;5.90;;;;;;;;;;4919575;29;20044;-94
2024/01/05 04:32:47;;;;;;;10.57;4.57;;;;;;;;;;4919270;29;20032;-96
2024/01/05 04:35:13;;;;;;;6.65;4.50;;;;;;;;;;4919430;29;20090;-94
2024/01/05 04:37:39;;;;;;;8.48;5.63;;;;;;;;;;4920365;29;20479;-95
2024/01/05 04:40:06;;;;;;;12.15;5.57;;;;;;;;;;4919634;29;20028;-95
2024/01/05 04:42:32;;;;;;;9.73;5.25;;;;;;;;;;4919130;29;20067;-95
2024/01/05 04:44:59;;;;;;;13.77;7.70;;;;;;;;;;4919424;29;20032;-96
2024/01/05 04:47:25;;;;;;;10.07;6.40;;;;;;;;;;4919284;29;20521;-95
2024/01/05 04:49:51;;;;;;;13.13;5.75;;;;;;;;;;4919271;29;20028;-96
2024/01/05 04:52:18;;;;;;;8.93;5.05;;;;;;;;;;4921320;29;20134;-95
2024/01/05 04:54:44;;;;;;;12.55;6.28;;;;;;;;;;4919251;29;20494;-94
2024/01/05 04:57:10;;;;;;;10.85;6.32;;;;;;;;;;4918567;29;20020;-95
2024/01/05 04:59:36;;;;;;;10.02;6.57;;;;;;;;;;4918669;29;20059;-94
2024/01/05 05:02:02;;;;;;;12.35;6.38;;;;;;;;;;4918625;29;20028;-95
2024/01/05 05:04:29;;;;;;;16.10;8.40;;;;;;;;;;4918514;29;20418;-96
2024/01/05 05:06:55;;;;;;;12.48;6.80;;;;;;;;;;4918564;29;20020;-95
2024/01/05 05:09:21;;;;;;;9.63;6.45;;;;;;;;;;4918594;29;20032;-95
2024/01/05 05:11:48;;;;;;;14.32;6.68;;;;;;;;;;4918470;29;20107;-95
2024/01/05 05:14:14;;;;;;;14.07;6.80;;;;;;;;;;4918236;29;20033;-95
2024/01/05 05:16:41;;;;;;;12.30;7.22;;;;;;;;;;4918246;29;20032;-94
2024/01/05 05:19:07;;;;;;;12.65;7.10;;;;;;;;;;4918419;29;20020;-95
2024/01/05 05:21:33;;;;;;;15.60;7.90;;;;;;;;;;4918394;29;20440;-96
2024/01/05 05:23:59;;;;;;;11.30;6.80;;;;;;;;;;4918295;29;20067;-95
2024/01/05 05:26:25;;;;;;;17.98;9.48;;;;;;;;;;4918425;29;20119;-95
2024/01/05 05:28:52;;;;;;;16.23;8.98;;;;;;;;;;4918345;29;20067;-95
2024/01/05 05:31:18;;;;;;;15.05;7.85;;;;;;;;;;4918255;29;20059;-94
2024/01/05 05:33:44;;;;;;;15.60;7.47;;;;;;;;;;4918519;29;20111;-96
2024/01/05 05:36:10;;;;;;;13.00;6.95;;;;;;;;;;4918361;29;20139;-96
2024/01/05 05:38:36;;;;;;;13.45;8.05;;;;;;;;;;4918589;29;20494;-96
2024/01/05 05:41:03;;;;;;;12.15;7.25;;;;;;;;;;4918021;29;20032;-94
2024/01/05 05:43:29;;;;;;;11.18;7.00;;;;;;;;;;4918734;29;20494;-95
2024/01/05 05:45:55;;;;;;;8.23;5.75;;;;;;;;;;4918442;29;20032;-95
2024/01/05 05:48:22;;;;;;;10.68;5.65;;;;;;;;;;4918841;29;20474;-95
2024/01/05 05:50:49;;;;;;;10.32;5.18;;;;;;;;;;4918257;29;20024;-95
2024/01/05 05:53:15;;;;;;;7.20;4.78;;;;;;;;;;4940712;28;20028;-94
2024/01/05 05:55:42;;;;;;;7.05;4.75;;;;;;;;;;4939593;28;20035;-96
2024/01/05 05:58:08;;;;;;;7.22;3.95;;;;;;;;;;4917653;29;20060;-93
2024/01/05 06:00:35;;;;;;;10.00;4.22;;;;;;;;;;4917816;29;20024;-96
2024/01/05 06:03:01;;;;;;;8.85;5.35;;;;;;;;;;4917628;29;20032;-95
2024/01/05 06:05:28;;;;;;;19.35;9.40;;;;;;;;;;4917532;29;20075;-95
2024/01/05 06:07:54;;;;;;;18.52;10.93;;;;;;;;;;4917576;29;20031;-96
2024/01/05 06:10:20;;;;;;;19.45;10.93;;;;;;;;;;4917728;29;20032;-95
2024/01/05 06:12:46;;;;;;;25.00;12.07;;;;;;;;;;4917566;29;20535;-95
2024/01/05 06:15:13;;;;;;;29.73;15.25;;;;;;;;;;4917772;29;20136;-96
2024/01/05 06:17:39;;;;;;;31.55;17.05;;;;;;;;;;4917414;29;20044;-95
2024/01/05 06:20:08;;;;;;;35.67;16.90;;;;;;;;;;4917533;29;20031;-95
2024/01/05 06:22:34;;;;;;;20.13;11.25;;;;;;;;;;4917200;29;20405;-96
2024/01/05 06:25:00;;;;;;;13.00;7.60;;;;;;;;;;4917556;29;20036;-95
2024/01/05 06:27:27;;;;;;;5.60;3.83;;;;;;;;;;4917363;29;20036;-94
2024/01/05 06:29:53;;;;;;;5.47;2.38;;;;;;;;;;4917734;29;20032;-96
2024/01/05 06:32:19;;;;;;;4.47;2.63;;;;;;;;;;4917667;29;20032;-94
2024/01/05 06:34:45;;;;;;;7.85;2.70;;;;;;;;;;4917701;29;20028;-93
2024/01/05 06:37:11;;;;;;;5.63;2.22;;;;;;;;;;4918339;29;20028;-94
2024/01/05 06:39:38;;;;;;;7.82;2.70;;;;;;;;;;4916786;29;20128;-95
2024/01/05 06:42:04;;;;;;;10.55;2.20;;;;;;;;;;4917275;29;20032;-95
2024/01/05 06:44:30;;;;;;;3.83;3.03;;;;;;;;;;4917472;29;20625;-95
2024/01/05 06:46:56;;;;;;;5.35;2.25;;;;;;;;;;4916964;29;20486;-96
2024/01/05 06:49:23;;;;;;;3.38;2.38;;;;;;;;;;4916838;29;20491;-94
2024/01/05 06:51:50;;;;;;;8.10;2.63;;;;;;;;;;4916710;29;20039;-95
2024/01/05 06:54:17;;;;;;;5.55;3.40;;;;;;;;;;4917154;29;20036;-95
2024/01/05 06:56:44;;;;;;;9.30;3.97;;;;;;;;;;4916706;29;20032;-95
2024/01/05 06:59:10;;;;;;;5.07;4.57;;;;;;;;;;4917528;29;20028;-95
2024/01/05 07:01:36;;;;;;;5.90;4.47;;;;;;;;;;4917155;29;20032;-96
2024/01/05 07:04:03;;;;;;;5.18;4.35;;;;;;;;;;4916759;29;20047;-96
2024/01/05 07:06:29;;;;;;;12.93;6.97;;;;;;;;;;4917550;29;20064;-96
2024/01/05 07:08:55;;;;;;;31.83;13.43;;;;;;;;;;4918547;29;20032;-96
2024/01/05 07:11:22;;;;;;;25.15;12.20;;;;;;;;;;4917048;29;20124;-96
2024/01/05 07:13:54;;;;;;;28.50;12.25;;;;;;;;;;4918743;29;20024;-96
2024/01/05 07:16:21;;;;;;;19.48;10.70;;;;;;;;;;4902871;29;20110;-96
2024/01/05 07:18:48;;;;;;;21.58;11.70;;;;;;;;;;4918272;29;20028;-96
2024/01/05 07:21:22;;;;;;;23.70;10.35;;;;;;;;;;4919157;29;20039;-96
2024/01/05 07:23:48;;;;;;;12.65;6.07;;;;;;;;;;4903825;29;20494;-96
2024/01/05 07:26:20;;;;;;;9.48;6.80;;;;;;;;;;4919413;29;20081;-96
2024/01/05 07:28:47;;;;;;;11.18;8.13;;;;;;;;;;4921114;29;20044;-96
2024/01/05 07:31:45;;;;;;;14.40;10.68;;;;;;;;;;4921588;29;20471;-96
2024/01/05 07:34:14;;;;;;;13.00;9.55;;;;;;;;;;4937646;28;20039;-96
2024/01/05 07:39:44;;;;;;;12.40;9.23;;;;;;;;;;4919725;29;20084;-96
2024/01/05 07:42:10;;;;;;;13.15;6.50;;;;;;;;;;4920633;29;20493;-96
2024/01/05 07:44:36;;;;;;;7.95;5.78;;;;;;;;;;4919616;29;20040;-96
2024/01/05 07:47:04;;;;;;;10.27;6.47;;;;;;;;;;4919401;29;20032;-96
2024/01/05 07:49:30;;;;;;;8.10;5.03;;;;;;;;;;4921327;29;20044;-96
2024/01/05 07:51:58;;;;;;;7.25;6.13;;;;;;;;;;4923575;29;20036;-96
2024/01/05 07:54:24;;;;;;;8.38;4.75;;;;;;;;;;4921697;29;20402;-92
2024/01/05 07:56:50;;;;;;;10.13;7.35;;;;;;;;;;4920917;29;20024;-96
2024/01/05 07:59:18;;;;;;;10.38;8.45;;;;;;;;;;4924080;29;20036;-96
2024/01/05 08:01:44;;;;;;;14.77;9.23;;;;;;;;;;4925254;29;20036;-96
2024/01/05 08:04:11;;;;;;;12.88;8.50;;;;;;;;;;4920184;29;20088;-91
2024/01/05 08:06:41;;;;;;;14.55;10.18;;;;;;;;;;4925367;29;20077;-96
2024/01/05 08:09:08;;;;;;;16.15;10.98;;;;;;;;;;4908162;29;20039;-90
2024/01/05 08:11:34;;;;;;;14.07;11.88;;;;;;;;;;4923086;29;20100;-94
2024/01/05 08:14:00;;;;;;;17.02;13.95;;;;;;;;;;4924220;29;20040;-96
2024/01/05 08:16:28;;;;;;;13.68;12.23;;;;;;;;;;4923630;29;20115;-96
2024/01/05 08:19:32;;;;;;;15.88;14.40;;;;;;;;;;4928253;29;20028;-96
2024/01/05 08:21:58;;;;;;;21.08;17.20;;;;;;;;;;4926355;29;20129;-95
2024/01/05 08:24:27;;;;;;;21.33;18.98;;;;;;;;;;4966582;23;20056;-96
2024/01/05 08:26:54;;;;;;;21.05;19.10;;;;;;;;;;4923427;29;20023;-96
2024/01/05 08:29:21;;;;;;;21.88;19.90;;;;;;;;;;5315190;23;20051;-96
2024/01/05 08:31:51;;;;;;;17.50;15.70;;;;;;;;;;5037041;23;20052;-96
2024/01/05 08:34:18;;;;;;;12.30;10.98;;;;;;;;;;4924862;29;20441;-96
2024/01/05 08:36:45;;;;;;;12.63;9.90;;;;;;;;;;4932951;29;20046;-96
2024/01/05 08:39:21;;;;;;;12.27;10.52;;;;;;;;;;4928697;29;20046;-96
2024/01/05 08:41:55;;;;;;;11.45;9.13;;;;;;;;;;4932672;29;20031;-95
2024/01/05 08:44:22;;;;;;;11.48;8.40;;;;;;;;;;4925683;29;20036;-96
2024/01/05 08:46:48;;;;;;;10.10;6.93;;;;;;;;;;4931308;29;20028;-96
2024/01/05 08:49:15;;;;;;;10.02;5.60;;;;;;;;;;4944123;29;20438;-96
2024/01/05 08:51:42;;;;;;;9.23;6.53;;;;;;;;;;4928784;29;20035;-96
2024/01/05 08:54:09;;;;;;;9.95;6.80;;;;;;;;;;4924144;29;20031;-96
2024/01/05 08:56:48;;;;;;;9.48;5.97;;;;;;;;;;4929143;29;20028;-96
2024/01/05 08:59:15;;;;;;;8.18;7.30;;;;;;;;;;4943367;29;20183;-96
2024/01/05 09:01:41;;;;;;;10.05;8.52;;;;;;;;;;4925069;29;20114;-96
2024/01/05 09:04:10;;;;;;;9.68;8.68;;;;;;;;;;4926816;29;20109;-93
2024/01/05 09:06:39;;;;;;;10.15;8.43;;;;;;;;;;4933594;29;20027;-96
2024/01/05 09:09:06;;;;;;;9.48;8.50;;;;;;;;;;4942133;29;20054;-94
2024/01/05 09:14:16;;;;;;;9.75;8.85;;;;;;;;;;5045594;23;20055;-96
2024/01/05 09:16:43;;;;;;;10.43;9.50;;;;;;;;;;4954277;28;20306;-96
2024/01/05 09:19:11;;;;;;;12.68;11.57;;;;;;;;;;4965107;28;20019;-96
2024/01/05 09:21:37;;;;;;;14.25;13.02;;;;;;;;;;4951672;28;20115;-96
2024/01/05 09:24:04;;;;;;;34.00;23.33;;;;;;;;;;4930780;29;20043;-96
2024/01/05 09:26:31;;;;;;;14.68;12.02;;;;;;;;;;4941855;29;20477;-96
2024/01/05 09:28:58;;;;;;;10.65;9.73;;;;;;;;;;4939349;29;20035;-96
2024/01/05 09:31:25;;;;;;;10.90;9.25;;;;;;;;;;4945372;29;20539;-96
2024/01/05 09:33:51;;;;;;;16.90;15.52;;;;;;;;;;4945383;29;20036;-96
2024/01/05 09:36:18;;;;;;;12.25;11.20;;;;;;;;;;4947217;29;20031;-96
2024/01/05 09:38:44;;;;;;;17.30;16.10;;;;;;;;;;4942086;29;20422;-95
2024/01/05 09:44:19;;;;;;;9.63;8.68;;;;;;;;;;5116344;23;20062;-96
2024/01/05 09:49:44;;;;;;;12.27;11.07;;;;;;;;;;4901294;29;20083;-94
2024/01/05 09:52:18;;;;;;;11.85;10.88;;;;;;;;;;4903692;29;20036;-95
2024/01/05 09:54:46;;;;;;;12.70;11.60;;;;;;;;;;4899570;29;20039;-91
2024/01/05 09:57:16;;;;;;;16.40;14.23;;;;;;;;;;4899091;29;20446;-95
2024/01/05 09:59:49;;;;;;;34.80;25.48;;;;;;;;;;4898624;29;20060;-95
2024/01/05 10:02:15;;;;;;;;;;;;;;;;;;4900117;29;20107;-96
2024/01/05 10:04:42;;;;;;;12.75;11.52;;;;;;;;;;4899641;29;19998;-96
2024/01/05 10:07:08;;;;;;;10.88;9.77;;;;;;;;;;4898805;29;20036;-95
2024/01/05 10:09:49;;;;;;;11.00;8.95;;;;;;;;;;4898982;29;20044;-96
2024/01/05 10:12:17;;;;;;;8.70;7.25;;;;;;;;;;4898684;29;20088;-95
2024/01/05 10:14:46;;;;;;;8.50;7.60;;;;;;;;;;4882866;29;20028;-95
2024/01/05 10:17:13;;;;;;;8.32;7.53;;;;;;;;;;4898173;29;20040;-94
2024/01/05 10:19:41;;;;;;;10.75;9.95;;;;;;;;;;4898823;29;20028;-96
2024/01/05 10:22:11;;;;;;;9.32;8.15;;;;;;;;;;4900217;29;20037;-96
2024/01/05 10:27:37;;;;;;;11.85;10.93;;;;;;;;;;4796923;29;20054;-96
2024/01/05 10:30:15;;;;;;;14.30;13.20;;;;;;;;;;4842736;29;20045;-96
2024/01/05 10:32:43;;;;;;;12.45;11.48;;;;;;;;;;4885666;29;20052;-96
2024/01/05 10:35:24;;;;;;;16.88;14.85;;;;;;;;;;4882907;29;20120;-96
2024/01/05 10:38:21;;;;;;;11.15;10.23;;;;;;;;;;4886422;29;20037;-96
2024/01/05 10:41:06;;;;;;;10.45;7.05;;;;;;;;;;4890959;29;20036;-96
2024/01/05 10:43:34;;;;;;;13.55;12.32;;;;;;;;;;4906328;29;20148;-96
2024/01/05 10:46:00;;;;;;;16.83;15.52;;;;;;;;;;4901234;29;20116;-96
2024/01/05 10:48:28;;;;;;;18.58;17.20;;;;;;;;;;4902963;29;20081;-95
2024/01/05 10:50:57;;;;;;;17.42;16.17;;;;;;;;;;4906251;29;20036;-96
2024/01/05 10:53:26;;;;;;;21.92;20.48;;;;;;;;;;4903559;29;20036;-95
2024/01/05 10:55:55;;;;;;;25.23;23.63;;;;;;;;;;4904382;29;20052;-96
2024/01/05 10:58:26;;;;;;;19.20;17.55;;;;;;;;;;4913421;29;20020;-95
2024/01/05 11:00:54;;;;;;;17.35;15.93;;;;;;;;;;4907029;29;20032;-95
2024/01/05 11:03:30;;;;;;;14.50;13.20;;;;;;;;;;4906953;29;20084;-95
2024/01/05 11:05:56;;;;;;;13.32;12.15;;;;;;;;;;4902008;29;20029;-96
2024/01/05 11:08:40;;;;;;;10.43;9.27;;;;;;;;;;4905287;29;20025;-96
2024/01/05 11:14:09;;;;;;;18.58;16.85;;;;;;;;;;5105213;23;20056;-96
2024/01/05 11:24:24;;;;;;;14.25;9.40;;;;;;;;;;4919773;29;20639;-96
2024/01/05 11:26:50;;;;;;;10.95;9.88;;;;;;;;;;5412296;23;20034;-94
2024/01/05 11:31:56;;;;;;;12.20;10.93;;;;;;;;;;5270612;23;20052;-96
2024/01/05 11:34:32;;;;;;;12.02;10.48;;;;;;;;;;4951474;23;20044;-95
2024/01/05 11:36:58;;;;;;;9.77;8.85;;;;;;;;;;4909185;29;20478;-95
2024/01/05 11:39:49;;;;;;;8.57;6.90;;;;;;;;;;4914373;29;20038;-94
2024/01/05 11:42:24;;;;;;;8.63;7.82;;;;;;;;;;4946914;23;20138;-96
2024/01/05 11:44:50;;;;;;;9.77;8.52;;;;;;;;;;4931616;29;20134;-95
2024/01/05 11:47:35;;;;;;;9.85;7.35;;;;;;;;;;4929680;29;20032;-96
2024/01/05 11:50:31;;;;;;;7.93;7.13;;;;;;;;;;4926079;29;20031;-96
2024/01/05 11:55:40;;;;;;;9.93;8.35;;;;;;;;;;4998353;23;20048;-95
2024/01/05 11:58:43;;;;;;;9.85;8.55;;;;;;;;;;4924913;29;20036;-95
2024/01/05 12:01:12;;;;;;;9.90;8.90;;;;;;;;;;4918137;29;20059;-94
2024/01/05 12:03:38;;;;;;;11.40;7.32;;;;;;;;;;4931095;29;20087;-93
2024/01/05 12:06:05;;;;;;;11.93;8.82;;;;;;;;;;4945946;29;20019;-94
2024/01/05 12:08:40;;;;;;;9.38;8.20;;;;;;;;;;4953178;29;20551;-96
2024/01/05 12:11:08;;;;;;;9.32;8.43;;;;;;;;;;4946208;29;20031;-95
2024/01/05 12:13:35;;;;;;;10.82;9.07;;;;;;;;;;4943982;29;20023;-93
2024/01/05 12:16:05;;;;;;;12.10;11.13;;;;;;;;;;4946647;28;20019;-95
2024/01/05 12:18:32;;;;;;;8.60;7.88;;;;;;;;;;4944500;29;20016;-95
2024/01/05 12:21:19;;;;;;;10.20;9.27;;;;;;;;;;4944789;29;20031;-96
2024/01/05 12:23:54;;;;;;;8.43;7.70;;;;;;;;;;4893614;29;20064;-94
2024/01/05 12:26:34;;;;;;;10.20;8.90;;;;;;;;;;4916142;29;20028;-96
2024/01/05 12:29:01;;;;;;;9.57;8.65;;;;;;;;;;4949912;29;20038;-96
2024/01/05 12:31:27;;;;;;;11.07;9.57;;;;;;;;;;4926644;29;20026;-95
2024/01/05 12:33:53;;;;;;;10.55;9.57;;;;;;;;;;4926484;29;20493;-96
2024/01/05 12:36:31;;;;;;;11.13;10.10;;;;;;;;;;4925113;29;20055;-96
2024/01/05 12:39:10;;;;;;;10.07;8.80;;;;;;;;;;4930042;29;20039;-96
2024/01/05 12:41:39;;;;;;;11.50;9.80;;;;;;;;;;4939067;29;20027;-95
2024/01/05 12:44:07;;;;;;;11.20;9.50;;;;;;;;;;4946177;29;20107;-95
2024/01/05 12:46:41;;;;;;;13.15;11.95;;;;;;;;;;4933999;29;20043;-96
2024/01/05 12:49:24;;;;;;;12.93;11.77;;;;;;;;;;4926461;29;20032;-96
2024/01/05 12:51:51;;;;;;;15.68;10.68;;;;;;;;;;4909915;29;20039;-96
2024/01/05 12:54:17;;;;;;;16.55;10.02;;;;;;;;;;4925944;29;20039;-96
2024/01/05 12:56:48;;;;;;;9.80;8.75;;;;;;;;;;4925099;29;20055;-96
2024/01/05 12:59:36;;;;;;;11.60;10.40;;;;;;;;;;4923788;29;20031;-96
2024/01/05 13:02:06;;;;;;;11.93;9.27;;;;;;;;;;4948071;29;20054;-96
2024/01/05 13:07:44;;;;;;;10.00;9.00;;;;;;;;;;4921887;29;20104;-93
2024/01/05 13:10:10;;;;;;;10.82;9.40;;;;;;;;;;4922169;29;20139;-93
2024/01/05 13:12:39;;;;;;;10.32;8.93;;;;;;;;;;4921775;29;20063;-94
2024/01/05 13:15:05;;;;;;;12.77;11.65;;;;;;;;;;4939664;29;20038;-94
2024/01/05 13:17:42;;;;;;;11.23;9.85;;;;;;;;;;4946992;29;20098;-96
2024/01/05 13:20:09;;;;;;;16.70;13.73;;;;;;;;;;4942517;29;20025;-96
2024/01/05 13:25:43;;;;;;;20.10;13.80;;;;;;;;;;4958919;29;20041;-96
2024/01/05 13:28:09;;;;;;;16.73;12.65;;;;;;;;;;4935985;29;20083;-94
2024/01/05 13:30:35;;;;;;;16.55;12.82;;;;;;;;;;4938513;29;20058;-96
2024/01/05 13:33:07;;;;;;;18.13;12.63;;;;;;;;;;4923337;29;20103;-96
2024/01/05 13:35:33;;;;;;;29.50;17.95;;;;;;;;;;4928187;29;20161;-96
2024/01/05 13:38:22;;;;;;;20.60;14.82;;;;;;;;;;4923354;29;20031;-96
2024/01/05 13:40:48;;;;;;;30.15;18.38;;;;;;;;;;4926702;29;20074;-96
2024/01/05 13:43:14;;;;;;;30.08;18.67;;;;;;;;;;4921917;29;20031;-96
2024/01/05 13:45:45;;;;;;;28.13;15.57;;;;;;;;;;4923709;29;20024;-96
2024/01/05 13:48:12;;;;;;;24.88;16.27;;;;;;;;;;4935223;29;20042;-94
2024/01/05 13:50:38;;;;;;;30.38;20.40;;;;;;;;;;4944203;28;20125;-96
2024/01/05 13:53:10;;;;;;;24.35;16.85;;;;;;;;;;4958990;29;20028;-96
2024/01/05 13:55:37;;;;;;;28.10;21.40;;;;;;;;;;4925429;29;20047;-96
2024/01/05 13:58:04;;;;;;;28.98;22.88;;;;;;;;;;4939612;29;20036;-96
2024/01/05 14:00:30;;;;;;;29.83;23.10;;;;;;;;;;4923128;29;20532;-96
2024/01/05 14:02:57;;;;;;;29.48;23.45;;;;;;;;;;4890321;29;20091;-96
2024/01/05 14:05:25;;;;;;;32.40;24.25;;;;;;;;;;4917753;29;20063;-96
2024/01/05 14:07:51;;;;;;;39.35;29.50;;;;;;;;;;4922996;29;20481;-96
2024/01/05 14:10:17;;;;;;;27.73;24.00;;;;;;;;;;4910591;29;20035;-96
2024/01/05 14:12:43;;;;;;;39.85;31.23;;;;;;;;;;4903827;29;20040;-96
2024/01/05 14:15:15;;;;;;;31.92;25.08;;;;;;;;;;4906040;29;20024;-94
2024/01/05 14:17:42;;;;;;;28.20;22.15;;;;;;;;;;4894378;29;20176;-96
2024/01/05 14:20:11;;;;;;;43.60;32.38;;;;;;;;;;4923704;29;20051;-96
2024/01/05 14:22:54;;;;;;;35.58;28.05;;;;;;;;;;4908255;29;20040;-96
2024/01/05 14:25:22;;;;;;;19.08;15.00;;;;;;;;;;4948770;28;20079;-94
2024/01/05 14:27:49;;;;;;;21.17;17.15;;;;;;;;;;4944773;28;20019;-96
2024/01/05 14:30:16;;;;;;;18.88;16.98;;;;;;;;;;4924661;29;20043;-94
2024/01/05 14:32:45;;;;;;;30.17;23.10;;;;;;;;;;4920985;29;20031;-96
2024/01/05 14:35:11;;;;;;;26.27;19.42;;;;;;;;;;4920995;29;20118;-94
2024/01/05 14:37:39;;;;;;;24.55;18.45;;;;;;;;;;4922366;29;20042;-95
2024/01/05 14:40:08;;;;;;;27.65;18.65;;;;;;;;;;4920674;29;20148;-94
2024/01/05 14:42:34;;;;;;;19.42;16.17;;;;;;;;;;4920131;29;20035;-94
2024/01/05 14:45:01;;;;;;;26.90;19.65;;;;;;;;;;4920435;29;20027;-95
2024/01/05 14:47:28;;;;;;;23.48;14.75;;;;;;;;;;4913365;29;20032;-96
2024/01/05 14:49:54;;;;;;;21.00;17.58;;;;;;;;;;4912506;29;20040;-94
2024/01/05 14:52:20;;;;;;;22.05;17.92;;;;;;;;;;4915770;29;20024;-94
2024/01/05 14:54:50;;;;;;;24.25;14.88;;;;;;;;;;4901724;29;20048;-95
2024/01/05 14:57:16;;;;;;;26.77;18.17;;;;;;;;;;4901952;29;20056;-93
2024/01/05 14:59:42;;;;;;;24.73;15.10;;;;;;;;;;4903987;29;20032;-95
2024/01/05 15:02:09;;;;;;;23.00;17.58;;;;;;;;;;4906968;29;20043;-96
2024/01/05 15:04:36;;;;;;;30.40;19.98;;;;;;;;;;4905155;29;20139;-94
2024/01/05 15:07:04;;;;;;;24.83;19.05;;;;;;;;;;4906633;29;20028;-96
2024/01/05 15:09:31;;;;;;;28.90;18.77;;;;;;;;;;4905881;29;20032;-95
2024/01/05 15:11:57;;;;;;;22.70;14.73;;;;;;;;;;4905383;29;20070;-94
2024/01/05 15:14:24;;;;;;;26.88;15.40;;;;;;;;;;4905156;29;20039;-95
2024/01/05 15:16:50;;;;;;;25.88;14.45;;;;;;;;;;4889424;29;20028;-94
2024/01/05 15:19:16;;;;;;;28.90;14.85;;;;;;;;;;4905468;29;20028;-93
2024/01/05 15:21:43;;;;;;;26.77;14.10;;;;;;;;;;4905157;29;20043;-94
2024/01/05 15:24:09;;;;;;;32.22;16.80;;;;;;;;;;4905310;29;20043;-94
2024/01/05 15:26:43;;;;;;;30.75;15.27;;;;;;;;;;4904623;29;20024;-94
2024/01/05 15:29:13;;;;;;;29.42;15.10;;;;;;;;;;4905416;29;20039;-95
2024/01/05 15:31:39;;;;;;;33.30;15.43;;;;;;;;;;4904849;29;20053;-93
2024/01/05 15:34:05;;;;;;;32.83;14.95;;;;;;;;;;4904492;29;20035;-95
2024/01/05 15:36:33;;;;;;;30.45;16.08;;;;;;;;;;4904281;29;20025;-95
2024/01/05 15:38:59;;;;;;;26.70;14.85;;;;;;;;;;4904810;29;20147;-96
2024/01/05 15:41:27;;;;;;;24.25;12.65;;;;;;;;;;4904503;29;20366;-96
2024/01/05 15:43:55;;;;;;;26.85;16.95;;;;;;;;;;4904988;29;20500;-96
2024/01/05 15:46:22;;;;;;;32.30;16.63;;;;;;;;;;4922032;29;20028;-96
2024/01/05 15:48:48;;;;;;;25.45;16.27;;;;;;;;;;4905955;29;20398;-95
2024/01/05 15:51:15;;;;;;;29.42;19.15;;;;;;;;;;4904615;29;20033;-96
2024/01/05 15:53:42;;;;;;;27.55;21.35;;;;;;;;;;4906143;29;20035;-96
2024/01/05 15:56:09;;;;;;;29.92;17.23;;;;;;;;;;4926077;29;20035;-94
2024/01/05 15:58:38;;;;;;;35.22;19.73;;;;;;;;;;4927706;29;20063;-96
2024/01/05 16:01:04;;;;;;;38.13;25.48;;;;;;;;;;4926160;29;20066;-94
2024/01/05 16:03:30;;;;;;;38.08;24.02;;;;;;;;;;4934144;29;20090;-94
2024/01/05 16:05:57;;;;;;;34.40;24.30;;;;;;;;;;4925924;29;20032;-93
2024/01/05 16:08:23;;;;;;;39.85;23.83;;;;;;;;;;4953972;28;20012;-94
2024/01/05 16:10:52;;;;;;;36.22;23.60;;;;;;;;;;4941101;29;20079;-96
2024/01/05 16:13:19;;;;;;;39.67;25.35;;;;;;;;;;4920945;29;20031;-96
2024/01/05 16:15:45;;;;;;;37.17;25.55;;;;;;;;;;4907070;29;20062;-94
2024/01/05 16:18:12;;;;;;;33.30;27.75;;;;;;;;;;4933288;29;20507;-95
2024/01/05 16:20:41;;;;;;;34.45;26.95;;;;;;;;;;4941350;29;20118;-93
2024/01/05 16:23:07;;;;;;;41.63;27.27;;;;;;;;;;4941380;29;20027;-96
2024/01/05 16:25:33;;;;;;;45.80;26.90;;;;;;;;;;4920029;29;20095;-96
2024/01/05 16:28:03;;;;;;;47.80;27.85;;;;;;;;;;4916462;29;20082;-95
2024/01/05 16:30:29;;;;;;;47.65;28.40;;;;;;;;;;4941957;29;20043;-95
2024/01/05 16:32:55;;;;;;;60.33;33.33;;;;;;;;;;4941895;29;20031;-96
2024/01/05 16:35:22;;;;;;;54.10;32.22;;;;;;;;;;4942087;29;20082;-95
2024/01/05 16:37:48;;;;;;;47.30;30.73;;;;;;;;;;4942072;29;20487;-94
2024/01/05 16:40:16;;;;;;;51.28;30.55;;;;;;;;;;4943143;29;20063;-95
2024/01/05 16:45:51;;;;;;;37.90;24.02;;;;;;;;;;4969513;28;20066;-95
2024/01/05 16:48:29;;;;;;;36.22;25.83;;;;;;;;;;5527853;23;20059;-96
2024/01/05 16:53:25;;;;;;;43.95;26.77;;;;;;;;;;4902191;29;20132;-96
2024/01/05 16:55:51;;;;;;;38.28;24.85;;;;;;;;;;4884310;29;20029;-92
2024/01/05 16:58:18;;;;;;;38.45;24.02;;;;;;;;;;4884829;29;20021;-96
2024/01/05 17:00:44;;;;;;;37.88;24.65;;;;;;;;;;4900272;29;20115;-96
2024/01/05 17:03:13;;;;;;;38.10;24.30;;;;;;;;;;4900182;29;20084;-95
2024/01/05 17:05:42;;;;;;;40.78;23.75;;;;;;;;;;4899890;29;20040;-95
2024/01/05 17:08:08;;;;;;;35.35;21.90;;;;;;;;;;4902779;29;20041;-95
2024/01/05 17:10:35;;;;;;;40.70;22.45;;;;;;;;;;4901168;29;20028;-92
2024/01/05 17:13:01;;;;;;;36.20;20.60;;;;;;;;;;4906461;29;20150;-95
2024/01/05 17:15:28;;;;;;;38.55;21.75;;;;;;;;;;4919103;29;20048;-95
2024/01/05 17:17:54;;;;;;;30.58;18.70;;;;;;;;;;4901906;29;20032;-95
2024/01/05 17:20:20;;;;;;;37.97;20.60;;;;;;;;;;4899440;29;20127;-96
2024/01/05 17:22:49;;;;;;;28.50;20.10;;;;;;;;;;4899964;29;20029;-94
2024/01/05 17:25:15;;;;;;;31.40;20.38;;;;;;;;;;4899608;29;20391;-93
2024/01/05 17:27:41;;;;;;;26.17;18.77;;;;;;;;;;4899650;29;20029;-92
2024/01/05 17:30:09;;;;;;;21.35;16.58;;;;;;;;;;4899248;29;20051;-94
2024/01/05 17:32:36;;;;;;;21.63;17.33;;;;;;;;;;4901543;29;20029;-93
2024/01/05 17:37:52;;;;;;;23.55;15.52;;;;;;;;;;5301621;23;20183;-92
2024/01/05 17:43:33;;;;;;;28.88;15.63;;;;;;;;;;5656787;23;20056;-95
2024/01/05 17:46:03;;;;;;;32.58;20.35;;;;;;;;;;4922170;29;20036;-91
2024/01/05 17:48:29;;;;;;;24.77;17.23;;;;;;;;;;4922567;29;20385;-91
2024/01/05 17:50:59;;;;;;;24.35;16.67;;;;;;;;;;4960068;28;20039;-94
2024/01/05 17:53:25;;;;;;;23.77;15.48;;;;;;;;;;4943212;29;20062;-95
2024/01/05 17:55:52;;;;;;;27.92;18.90;;;;;;;;;;4924275;29;20062;-96
2024/01/05 17:58:18;;;;;;;28.17;19.02;;;;;;;;;;4921499;29;20024;-96
2024/01/05 18:00:44;;;;;;;37.53;19.50;;;;;;;;;;4931986;29;20031;-93
2024/01/05 18:03:14;;;;;;;31.02;18.63;;;;;;;;;;4941806;29;20035;-94
2024/01/05 18:05:47;;;;;;;29.27;18.83;;;;;;;;;;4944116;29;20062;-96
2024/01/05 18:08:13;;;;;;;27.40;18.98;;;;;;;;;;4940080;29;20034;-93
2024/01/05 18:10:40;;;;;;;27.48;18.02;;;;;;;;;;4935038;29;20023;-94
2024/01/05 18:13:06;;;;;;;24.98;17.95;;;;;;;;;;4931619;29;20627;-94
2024/01/05 19:51:01;;;;;;;55.55;28.45;;;;;;;;;;5266741;23;20051;-93
2024/01/05 20:03:22;;;;;;;57.65;27.33;;;;;;;;;;5302796;23;20067;-94
2024/01/05 20:06:03;;;;;;;48.38;25.77;;;;;;;;;;4903639;29;20051;-93
2024/01/05 20:11:33;;;;;;;44.53;23.20;;;;;;;;;;4902360;29;20051;-94
2024/01/05 20:13:59;;;;;;;50.50;24.25;;;;;;;;;;4885324;29;20281;-95
2024/01/05 20:16:26;;;;;;;56.55;27.02;;;;;;;;;;4898466;29;20131;-94
2024/01/05 20:18:52;;;;;;;49.95;26.30;;;;;;;;;;4909275;29;20036;-95